Leonardo — IAZA — position and weather

sailwx.info

Track history (hours):
 
Tides and Currents Weather Stations Pressure Air Temp Water Temp Dewpoint Dewpoint Depression Visibility Wind Speed Wind Dir Waves Ship Positions

Leonardo

Last reported at 2016-May-04 04:28 UTC. Time now 2016-May-04 05:58 UTC.
Position N 44°05' E 009°49'.

Length 28 m; draft 2.7 m.

MMSI: 247155800.

Date/timePositionNaut miles runAvg speedWind from/ knotsBaromVisibWave heightAir tempDewpointWater temp
2016-May-04 04:28N 44°05' E 009°49'0 0.0
2016-May-04 03:31N 44°05' E 009°49'0 0.0
2016-May-04 02:33N 44°05' E 009°49'0 0.0
2016-May-04 01:33N 44°05' E 009°49'0 0.0
2016-May-04 00:30N 44°05' E 009°49'0 0.0
2016-May-03 23:29N 44°05' E 009°49'0 0.0
2016-May-03 22:32N 44°05' E 009°49'0 0.0
2016-May-03 21:31N 44°05' E 009°49'0 0.0
2016-May-03 20:28N 44°05' E 009°49'0 0.0
2016-May-03 19:33N 44°05' E 009°49'0 0.0
2016-May-03 18:30N 44°05' E 009°49'0 0.0
2016-May-03 17:33N 44°05' E 009°49'0 0.0
2016-May-03 16:32N 44°05' E 009°49'2 2.3
2016-May-03 15:34N 44°04' E 009°52'3 3.0
2016-May-03 14:34N 44°03' E 009°56'0 0.0
2016-May-03 13:34N 44°03' E 009°56'0 0.0
2016-May-03 12:34N 44°03' E 009°56'0 0.0
2016-May-03 11:34N 44°03' E 009°56'0 0.0
2016-May-03 10:33N 44°03' E 009°56'0 0.0
2016-May-03 09:33N 44°03' E 009°56'0 0.0
2016-May-03 08:33N 44°03' E 009°56'0 0.0
2016-May-03 07:34N 44°03' E 009°56'3 3.4
2016-May-03 06:34N 44°04' E 009°51'2 1.8
2016-May-03 05:33N 44°05' E 009°49'0 0.0
2016-May-03 04:32N 44°05' E 009°49'0 0.0
2016-May-03 03:29N 44°05' E 009°49'0 0.0
2016-May-03 02:32N 44°05' E 009°49'0 0.0
2016-May-03 01:31N 44°05' E 009°49'0 0.0
2016-May-03 00:31N 44°05' E 009°49'0 0.0
2016-May-02 23:33N 44°05' E 009°49'0 0.0
2016-May-02 22:33N 44°05' E 009°49'0 0.0
2016-May-02 21:32N 44°05' E 009°49'0 0.0
2016-May-02 20:32N 44°05' E 009°49'0 0.0
2016-May-02 19:31N 44°05' E 009°49'0 0.0
2016-May-02 18:31N 44°05' E 009°49'0 0.0
2016-May-02 17:31N 44°05' E 009°49'0 0.0
2016-May-02 16:33N 44°05' E 009°49'0 0.0
2016-May-02 15:33N 44°05' E 009°49'5 5.3
2016-May-02 14:33N 44°03' E 009°56'0 0.3
2016-May-02 13:33N 44°03' E 009°56'0 0.1
2016-May-02 12:34N 44°03' E 009°56'0 0.1
2016-May-02 11:33N 44°03' E 009°56'0 0.0
2016-May-02 10:33N 44°03' E 009°56'0 0.0
2016-May-02 09:33N 44°03' E 009°56'0 0.0
2016-May-02 08:33N 44°03' E 009°56'0 0.2
2016-May-02 07:33N 44°03' E 009°56'4 3.8
2016-May-02 06:33N 44°05' E 009°51'1 1.2
2016-May-02 05:32N 44°05' E 009°49'0 0.0
2016-May-02 04:31N 44°05' E 009°49'0 0.0
2016-May-02 03:31N 44°05' E 009°49'0 0.0
2016-May-02 02:31N 44°05' E 009°49'0 0.0
2016-May-02 01:33N 44°05' E 009°49'0 0.0
2016-May-02 00:33N 44°05' E 009°49'0 0.0
2016-May-01 23:32N 44°05' E 009°49'0 0.0
2016-May-01 22:32N 44°05' E 009°49'0 0.0
2016-May-01 21:31N 44°05' E 009°49'0 0.0
2016-May-01 20:31N 44°05' E 009°49'0 0.0
2016-May-01 19:31N 44°05' E 009°49'0 0.0
2016-May-01 18:33N 44°05' E 009°49'0 0.0
2016-May-01 17:33N 44°05' E 009°49'0 0.0
2016-May-01 16:32N 44°05' E 009°49'0 0.0
2016-May-01 15:32N 44°05' E 009°49'0 0.0
2016-May-01 14:31N 44°05' E 009°49'0 0.0
2016-May-01 13:31N 44°05' E 009°49'0 0.0
2016-May-01 12:34N 44°05' E 009°49'0 0.0
2016-May-01 11:30N 44°05' E 009°49'0 0.0
2016-May-01 10:27N 44°05' E 009°49'0 0.0
2016-May-01 09:32N 44°05' E 009°49'0 0.0
2016-May-01 08:32N 44°05' E 009°49'0 0.0
2016-May-01 07:31N 44°05' E 009°49'0 0.0
2016-May-01 06:31N 44°05' E 009°49'0 0.0
2016-May-01 05:33N 44°05' E 009°49'0 0.0
2016-May-01 04:33N 44°05' E 009°49'0 0.0
2016-May-01 03:33N 44°05' E 009°49'0 0.0
2016-May-01 02:26N 44°05' E 009°49'0 0.0
2016-May-01 01:32N 44°05' E 009°49'0 0.0
2016-May-01 00:31N 44°05' E 009°49'0 0.0
2016-Apr-30 23:31N 44°05' E 009°49'0 0.0
2016-Apr-30 22:33N 44°05' E 009°49'0 0.0
2016-Apr-30 21:33N 44°05' E 009°49'0 0.0
2016-Apr-30 20:33N 44°05' E 009°49'0 0.0
2016-Apr-30 19:32N 44°05' E 009°49'0 0.0
2016-Apr-30 18:32N 44°05' E 009°49'0 0.0
2016-Apr-30 17:31N 44°05' E 009°49'0 0.0
2016-Apr-30 16:31N 44°05' E 009°49'0 0.0
2016-Apr-30 15:33N 44°05' E 009°49'0 0.0
2016-Apr-30 14:33N 44°05' E 009°49'0 0.0
2016-Apr-30 13:33N 44°05' E 009°49'0 0.0
2016-Apr-30 12:32N 44°05' E 009°49'0 0.0
2016-Apr-30 11:32N 44°05' E 009°49'0 0.0
2016-Apr-30 10:31N 44°05' E 009°49'0 0.0
2016-Apr-30 09:28N 44°05' E 009°49'0 0.0
2016-Apr-30 08:33N 44°05' E 009°49'0 0.0
2016-Apr-30 07:33N 44°05' E 009°49'0 0.0
2016-Apr-30 06:32N 44°05' E 009°49'0 0.0
2016-Apr-30 05:32N 44°05' E 009°49'0 0.0
2016-Apr-30 04:32N 44°05' E 009°49'0 0.0
2016-Apr-30 03:28N 44°05' E 009°49'0 0.0
2016-Apr-30 02:31N 44°05' E 009°49'0 0.0
2016-Apr-30 01:33N 44°05' E 009°49'0 0.0
2016-Apr-30 00:33N 44°05' E 009°49'0 0.0
2016-Apr-29 23:32N 44°05' E 009°49'0 0.0
2016-Apr-29 22:29N 44°05' E 009°49'0 0.0
2016-Apr-29 21:32N 44°05' E 009°49'0 0.0
2016-Apr-29 20:31N 44°05' E 009°49'0 0.0
2016-Apr-29 19:28N 44°05' E 009°49'0 0.0
2016-Apr-29 18:33N 44°05' E 009°49'0 0.0
2016-Apr-29 17:33N 44°05' E 009°49'0 0.0
2016-Apr-29 16:32N 44°05' E 009°49'0 0.0
2016-Apr-29 15:32N 44°05' E 009°49'0 0.0
2016-Apr-29 14:32N 44°05' E 009°49'0 0.0
2016-Apr-29 13:31N 44°05' E 009°49'0 0.0
2016-Apr-29 12:31N 44°05' E 009°49'0 0.0
2016-Apr-29 11:30N 44°05' E 009°49'0 0.0
2016-Apr-29 10:33N 44°05' E 009°49'0 0.0
2016-Apr-29 09:32N 44°05' E 009°49'0 0.0
2016-Apr-29 08:32N 44°05' E 009°49'0 0.0
2016-Apr-29 07:32N 44°05' E 009°49'0 0.0
2016-Apr-29 06:31N 44°05' E 009°49'0 0.0
2016-Apr-29 05:28N 44°05' E 009°49'0 0.0
2016-Apr-29 04:33N 44°05' E 009°49'0 0.0
2016-Apr-29 03:33N 44°05' E 009°49'0 0.0
2016-Apr-29 02:32N 44°05' E 009°49'0 0.0
2016-Apr-29 01:32N 44°05' E 009°49'0 0.0
2016-Apr-29 00:31N 44°05' E 009°49'0 0.0
2016-Apr-28 23:31N 44°05' E 009°49'0 0.0
2016-Apr-28 22:31N 44°05' E 009°49'0 0.0
2016-Apr-28 21:33N 44°05' E 009°49'0 0.0
2016-Apr-28 20:33N 44°05' E 009°49'0 0.0
2016-Apr-28 19:29N 44°05' E 009°49'0 0.0
2016-Apr-28 18:32N 44°05' E 009°49'0 0.0
2016-Apr-28 17:31N 44°05' E 009°49'0 0.0
2016-Apr-28 16:31N 44°05' E 009°49'0 0.0
2016-Apr-28 15:31N 44°05' E 009°49'0 0.0
2016-Apr-28 14:33N 44°05' E 009°49'0 0.0
2016-Apr-28 13:33N 44°05' E 009°49'0 0.0
2016-Apr-28 12:29N 44°05' E 009°49'0 0.0
2016-Apr-28 11:32N 44°05' E 009°49'0 0.0
2016-Apr-28 10:31N 44°05' E 009°49'0 0.0
2016-Apr-28 09:31N 44°05' E 009°49'0 0.0
2016-Apr-28 08:31N 44°05' E 009°49'0 0.0
2016-Apr-28 07:33N 44°05' E 009°49'0 0.0
2016-Apr-28 06:33N 44°05' E 009°49'0 0.0
2016-Apr-28 05:32N 44°05' E 009°49'0 0.0
2016-Apr-28 04:32N 44°05' E 009°49'0 0.0
2016-Apr-28 03:31N 44°05' E 009°49'0 0.0
2016-Apr-28 02:31N 44°05' E 009°49'0 0.0
2016-Apr-28 01:34N 44°05' E 009°49'0 0.0
2016-Apr-28 00:33N 44°05' E 009°49'0 0.0
2016-Apr-27 23:33N 44°05' E 009°49'0 0.0
2016-Apr-27 22:32N 44°05' E 009°49'0 0.0
2016-Apr-27 21:32N 44°05' E 009°49'0 0.0
2016-Apr-27 20:31N 44°05' E 009°49'0 0.0
2016-Apr-27 19:31N 44°05' E 009°49'0 0.0
2016-Apr-27 18:33N 44°05' E 009°49'0 0.0
2016-Apr-27 17:33N 44°05' E 009°49'0 0.0
2016-Apr-27 16:33N 44°05' E 009°49'0 0.0
2016-Apr-27 15:32N 44°05' E 009°49'0 0.0
2016-Apr-27 14:32N 44°05' E 009°49'0 0.0
2016-Apr-27 13:31N 44°05' E 009°49'0 0.0
2016-Apr-27 12:31N 44°05' E 009°49'0 0.0
2016-Apr-27 11:33N 44°05' E 009°49'0 0.0
2016-Apr-27 10:33N 44°05' E 009°49'0 0.0
2016-Apr-27 09:33N 44°05' E 009°49'0 0.0
2016-Apr-27 08:32N 44°05' E 009°49'0 0.0
2016-Apr-27 07:32N 44°05' E 009°49'0 0.0
2016-Apr-27 06:31N 44°05' E 009°49'0 0.0
2016-Apr-27 05:31N 44°05' E 009°49'0 0.0
2016-Apr-27 04:30N 44°05' E 009°49'0 0.0
2016-Apr-27 03:33N 44°05' E 009°49'0 0.0
2016-Apr-27 02:33N 44°05' E 009°49'0 0.0
2016-Apr-27 01:32N 44°05' E 009°49'0 0.0
2016-Apr-27 00:32N 44°05' E 009°49'0 0.0
2016-Apr-26 23:31N 44°05' E 009°49'0 0.0
2016-Apr-26 22:31N 44°05' E 009°49'0 0.0
2016-Apr-26 21:33N 44°05' E 009°49'0 0.0
2016-Apr-26 20:33N 44°05' E 009°49'0 0.0
2016-Apr-26 19:33N 44°05' E 009°49'0 0.0
2016-Apr-26 18:32N 44°05' E 009°49'0 0.0
2016-Apr-26 17:32N 44°05' E 009°49'0 0.0
2016-Apr-26 16:31N 44°05' E 009°49'0 0.0
2016-Apr-26 15:31N 44°05' E 009°49'0 0.0
2016-Apr-26 14:33N 44°05' E 009°49'0 0.0
2016-Apr-26 13:33N 44°05' E 009°49'0 0.0
2016-Apr-26 12:32N 44°05' E 009°49'0 0.0
2016-Apr-26 11:32N 44°05' E 009°49'0 0.0
2016-Apr-26 10:32N 44°05' E 009°49'0 0.0
2016-Apr-26 09:31N 44°05' E 009°49'0 0.0
2016-Apr-26 08:31N 44°05' E 009°49'0 0.0
2016-Apr-26 07:33N 44°05' E 009°49'0 0.0
2016-Apr-26 06:33N 44°05' E 009°49'0 0.0
2016-Apr-26 05:32N 44°05' E 009°49'0 0.0
2016-Apr-26 04:29N 44°05' E 009°49'0 0.0
2016-Apr-26 03:32N 44°05' E 009°49'0 0.0
2016-Apr-26 02:31N 44°05' E 009°49'0 0.0
2016-Apr-26 01:31N 44°05' E 009°49'0 0.0
2016-Apr-26 00:30N 44°05' E 009°49'0 0.0
2016-Apr-25 23:33N 44°05' E 009°49'0 0.0
2016-Apr-25 22:32N 44°05' E 009°49'0 0.0
2016-Apr-25 21:32N 44°05' E 009°49'0 0.0
2016-Apr-25 20:32N 44°05' E 009°49'0 0.0
2016-Apr-25 19:31N 44°05' E 009°49'0 0.0
2016-Apr-25 18:31N 44°05' E 009°49'0 0.0
2016-Apr-25 17:33N 44°05' E 009°49'0 0.0
2016-Apr-25 16:30N 44°05' E 009°49'0 0.0
2016-Apr-25 15:29N 44°05' E 009°49'0 0.0
2016-Apr-25 14:32N 44°05' E 009°49'0 0.0
2016-Apr-25 13:31N 44°05' E 009°49'0 0.0
2016-Apr-25 12:31N 44°05' E 009°49'0 0.0
2016-Apr-25 11:31N 44°05' E 009°49'0 0.0
2016-Apr-25 10:33N 44°05' E 009°49'0 0.0
2016-Apr-25 09:33N 44°05' E 009°49'0 0.0
2016-Apr-25 08:32N 44°05' E 009°49'0 0.0
2016-Apr-25 07:32N 44°05' E 009°49'0 0.0
2016-Apr-25 06:31N 44°05' E 009°49'0 0.0
2016-Apr-25 05:28N 44°05' E 009°49'0 0.0
2016-Apr-25 04:31N 44°05' E 009°49'0 0.0
2016-Apr-25 03:33N 44°05' E 009°49'0 0.0
2016-Apr-25 02:33N 44°05' E 009°49'0 0.0
2016-Apr-25 01:32N 44°05' E 009°49'0 0.0
2016-Apr-25 00:32N 44°05' E 009°49'0 0.0
2016-Apr-24 23:31N 44°05' E 009°49'0 0.0
2016-Apr-24 22:31N 44°05' E 009°49'0 0.0
2016-Apr-24 21:31N 44°05' E 009°49'0 0.0
2016-Apr-24 20:33N 44°05' E 009°49'0 0.0
2016-Apr-24 19:33N 44°05' E 009°49'0 0.0
2016-Apr-24 18:32N 44°05' E 009°49'0 0.0
2016-Apr-24 17:32N 44°05' E 009°49'0 0.0
2016-Apr-24 16:31N 44°05' E 009°49'0 0.0
2016-Apr-24 15:31N 44°05' E 009°49'0 0.0
2016-Apr-24 14:34N 44°05' E 009°49'0 0.0
2016-Apr-24 13:30N 44°05' E 009°49'0 0.0
2016-Apr-24 12:33N 44°05' E 009°49'0 0.0
2016-Apr-24 11:32N 44°05' E 009°49'0 0.0
2016-Apr-24 10:32N 44°05' E 009°49'0 0.0
2016-Apr-24 09:31N 44°05' E 009°49'0 0.0
2016-Apr-24 08:28N 44°05' E 009°49'0 0.0
2016-Apr-24 07:33N 44°05' E 009°49'0 0.0
2016-Apr-24 06:33N 44°05' E 009°49'0 0.0
2016-Apr-24 05:33N 44°05' E 009°49'0 0.0
2016-Apr-24 04:32N 44°05' E 009°49'  
Track history (hours):
 
Tides and Currents Weather Stations Pressure Air Temp Water Temp Dewpoint Dewpoint Depression Visibility Wind Speed Wind Dir Waves Ship Positions

Leonardo

Last reported at 2016-May-04 04:28 UTC. Time now 2016-May-04 05:58 UTC.
Position N 44°05' E 009°49'.

Length 28 m; draft 2.7 m.

MMSI: 247155800.

Date/timePositionNaut miles runAvg speedWind from/ knotsBaromVisibWave heightAir tempDewpointWater temp
2016-May-04 04:28N 44°05' E 009°49'0 0.0
2016-May-04 03:31N 44°05' E 009°49'0 0.0
2016-May-04 02:33N 44°05' E 009°49'0 0.0
2016-May-04 01:33N 44°05' E 009°49'0 0.0
2016-May-04 00:30N 44°05' E 009°49'0 0.0
2016-May-03 23:29N 44°05' E 009°49'0 0.0
2016-May-03 22:32N 44°05' E 009°49'0 0.0
2016-May-03 21:31N 44°05' E 009°49'0 0.0
2016-May-03 20:28N 44°05' E 009°49'0 0.0
2016-May-03 19:33N 44°05' E 009°49'0 0.0
2016-May-03 18:30N 44°05' E 009°49'0 0.0
2016-May-03 17:33N 44°05' E 009°49'0 0.0
2016-May-03 16:32N 44°05' E 009°49'2 2.3
2016-May-03 15:34N 44°04' E 009°52'3 3.0
2016-May-03 14:34N 44°03' E 009°56'0 0.0
2016-May-03 13:34N 44°03' E 009°56'0 0.0
2016-May-03 12:34N 44°03' E 009°56'0 0.0
2016-May-03 11:34N 44°03' E 009°56'0 0.0
2016-May-03 10:33N 44°03' E 009°56'0 0.0
2016-May-03 09:33N 44°03' E 009°56'0 0.0
2016-May-03 08:33N 44°03' E 009°56'0 0.0
2016-May-03 07:34N 44°03' E 009°56'3 3.4
2016-May-03 06:34N 44°04' E 009°51'2 1.8
2016-May-03 05:33N 44°05' E 009°49'0 0.0
2016-May-03 04:32N 44°05' E 009°49'0 0.0
2016-May-03 03:29N 44°05' E 009°49'0 0.0
2016-May-03 02:32N 44°05' E 009°49'0 0.0
2016-May-03 01:31N 44°05' E 009°49'0 0.0
2016-May-03 00:31N 44°05' E 009°49'0 0.0
2016-May-02 23:33N 44°05' E 009°49'0 0.0
2016-May-02 22:33N 44°05' E 009°49'0 0.0
2016-May-02 21:32N 44°05' E 009°49'0 0.0
2016-May-02 20:32N 44°05' E 009°49'0 0.0
2016-May-02 19:31N 44°05' E 009°49'0 0.0
2016-May-02 18:31N 44°05' E 009°49'0 0.0
2016-May-02 17:31N 44°05' E 009°49'0 0.0
2016-May-02 16:33N 44°05' E 009°49'0 0.0
2016-May-02 15:33N 44°05' E 009°49'5 5.3
2016-May-02 14:33N 44°03' E 009°56'0 0.3
2016-May-02 13:33N 44°03' E 009°56'0 0.1
2016-May-02 12:34N 44°03' E 009°56'0 0.1
2016-May-02 11:33N 44°03' E 009°56'0 0.0
2016-May-02 10:33N 44°03' E 009°56'0 0.0
2016-May-02 09:33N 44°03' E 009°56'0 0.0
2016-May-02 08:33N 44°03' E 009°56'0 0.2
2016-May-02 07:33N 44°03' E 009°56'4 3.8
2016-May-02 06:33N 44°05' E 009°51'1 1.2
2016-May-02 05:32N 44°05' E 009°49'0 0.0
2016-May-02 04:31N 44°05' E 009°49'0 0.0
2016-May-02 03:31N 44°05' E 009°49'0 0.0
2016-May-02 02:31N 44°05' E 009°49'0 0.0
2016-May-02 01:33N 44°05' E 009°49'0 0.0
2016-May-02 00:33N 44°05' E 009°49'0 0.0
2016-May-01 23:32N 44°05' E 009°49'0 0.0
2016-May-01 22:32N 44°05' E 009°49'0 0.0
2016-May-01 21:31N 44°05' E 009°49'0 0.0
2016-May-01 20:31N 44°05' E 009°49'0 0.0
2016-May-01 19:31N 44°05' E 009°49'0 0.0
2016-May-01 18:33N 44°05' E 009°49'0 0.0
2016-May-01 17:33N 44°05' E 009°49'0 0.0
2016-May-01 16:32N 44°05' E 009°49'0 0.0
2016-May-01 15:32N 44°05' E 009°49'0 0.0
2016-May-01 14:31N 44°05' E 009°49'0 0.0
2016-May-01 13:31N 44°05' E 009°49'0 0.0
2016-May-01 12:34N 44°05' E 009°49'0 0.0
2016-May-01 11:30N 44°05' E 009°49'0 0.0
2016-May-01 10:27N 44°05' E 009°49'0 0.0
2016-May-01 09:32N 44°05' E 009°49'0 0.0
2016-May-01 08:32N 44°05' E 009°49'0 0.0
2016-May-01 07:31N 44°05' E 009°49'0 0.0
2016-May-01 06:31N 44°05' E 009°49'0 0.0
2016-May-01 05:33N 44°05' E 009°49'0 0.0
2016-May-01 04:33N 44°05' E 009°49'0 0.0
2016-May-01 03:33N 44°05' E 009°49'0 0.0
2016-May-01 02:26N 44°05' E 009°49'0 0.0
2016-May-01 01:32N 44°05' E 009°49'0 0.0
2016-May-01 00:31N 44°05' E 009°49'0 0.0
2016-Apr-30 23:31N 44°05' E 009°49'0 0.0
2016-Apr-30 22:33N 44°05' E 009°49'0 0.0
2016-Apr-30 21:33N 44°05' E 009°49'0 0.0
2016-Apr-30 20:33N 44°05' E 009°49'0 0.0
2016-Apr-30 19:32N 44°05' E 009°49'0 0.0
2016-Apr-30 18:32N 44°05' E 009°49'0 0.0
2016-Apr-30 17:31N 44°05' E 009°49'0 0.0
2016-Apr-30 16:31N 44°05' E 009°49'0 0.0
2016-Apr-30 15:33N 44°05' E 009°49'0 0.0
2016-Apr-30 14:33N 44°05' E 009°49'0 0.0
2016-Apr-30 13:33N 44°05' E 009°49'0 0.0
2016-Apr-30 12:32N 44°05' E 009°49'0 0.0
2016-Apr-30 11:32N 44°05' E 009°49'0 0.0
2016-Apr-30 10:31N 44°05' E 009°49'0 0.0
2016-Apr-30 09:28N 44°05' E 009°49'0 0.0
2016-Apr-30 08:33N 44°05' E 009°49'0 0.0
2016-Apr-30 07:33N 44°05' E 009°49'0 0.0
2016-Apr-30 06:32N 44°05' E 009°49'0 0.0
2016-Apr-30 05:32N 44°05' E 009°49'0 0.0
2016-Apr-30 04:32N 44°05' E 009°49'0 0.0
2016-Apr-30 03:28N 44°05' E 009°49'0 0.0
2016-Apr-30 02:31N 44°05' E 009°49'0 0.0
2016-Apr-30 01:33N 44°05' E 009°49'0 0.0
2016-Apr-30 00:33N 44°05' E 009°49'0 0.0
2016-Apr-29 23:32N 44°05' E 009°49'0 0.0
2016-Apr-29 22:29N 44°05' E 009°49'0 0.0
2016-Apr-29 21:32N 44°05' E 009°49'0 0.0
2016-Apr-29 20:31N 44°05' E 009°49'0 0.0
2016-Apr-29 19:28N 44°05' E 009°49'0 0.0
2016-Apr-29 18:33N 44°05' E 009°49'0 0.0
2016-Apr-29 17:33N 44°05' E 009°49'0 0.0
2016-Apr-29 16:32N 44°05' E 009°49'0 0.0
2016-Apr-29 15:32N 44°05' E 009°49'0 0.0
2016-Apr-29 14:32N 44°05' E 009°49'0 0.0
2016-Apr-29 13:31N 44°05' E 009°49'0 0.0
2016-Apr-29 12:31N 44°05' E 009°49'0 0.0
2016-Apr-29 11:30N 44°05' E 009°49'0 0.0
2016-Apr-29 10:33N 44°05' E 009°49'0 0.0
2016-Apr-29 09:32N 44°05' E 009°49'0 0.0
2016-Apr-29 08:32N 44°05' E 009°49'0 0.0
2016-Apr-29 07:32N 44°05' E 009°49'0 0.0
2016-Apr-29 06:31N 44°05' E 009°49'0 0.0
2016-Apr-29 05:28N 44°05' E 009°49'0 0.0
2016-Apr-29 04:33N 44°05' E 009°49'0 0.0
2016-Apr-29 03:33N 44°05' E 009°49'0 0.0
2016-Apr-29 02:32N 44°05' E 009°49'0 0.0
2016-Apr-29 01:32N 44°05' E 009°49'0 0.0
2016-Apr-29 00:31N 44°05' E 009°49'0 0.0
2016-Apr-28 23:31N 44°05' E 009°49'0 0.0
2016-Apr-28 22:31N 44°05' E 009°49'0 0.0
2016-Apr-28 21:33N 44°05' E 009°49'0 0.0
2016-Apr-28 20:33N 44°05' E 009°49'0 0.0
2016-Apr-28 19:29N 44°05' E 009°49'0 0.0
2016-Apr-28 18:32N 44°05' E 009°49'0 0.0
2016-Apr-28 17:31N 44°05' E 009°49'0 0.0
2016-Apr-28 16:31N 44°05' E 009°49'0 0.0
2016-Apr-28 15:31N 44°05' E 009°49'0 0.0
2016-Apr-28 14:33N 44°05' E 009°49'0 0.0
2016-Apr-28 13:33N 44°05' E 009°49'0 0.0
2016-Apr-28 12:29N 44°05' E 009°49'0 0.0
2016-Apr-28 11:32N 44°05' E 009°49'0 0.0
2016-Apr-28 10:31N 44°05' E 009°49'0 0.0
2016-Apr-28 09:31N 44°05' E 009°49'0 0.0
2016-Apr-28 08:31N 44°05' E 009°49'0 0.0
2016-Apr-28 07:33N 44°05' E 009°49'0 0.0
2016-Apr-28 06:33N 44°05' E 009°49'0 0.0
2016-Apr-28 05:32N 44°05' E 009°49'0 0.0
2016-Apr-28 04:32N 44°05' E 009°49'0 0.0
2016-Apr-28 03:31N 44°05' E 009°49'0 0.0
2016-Apr-28 02:31N 44°05' E 009°49'0 0.0
2016-Apr-28 01:34N 44°05' E 009°49'0 0.0
2016-Apr-28 00:33N 44°05' E 009°49'0 0.0
2016-Apr-27 23:33N 44°05' E 009°49'0 0.0
2016-Apr-27 22:32N 44°05' E 009°49'0 0.0
2016-Apr-27 21:32N 44°05' E 009°49'0 0.0
2016-Apr-27 20:31N 44°05' E 009°49'0 0.0
2016-Apr-27 19:31N 44°05' E 009°49'0 0.0
2016-Apr-27 18:33N 44°05' E 009°49'0 0.0
2016-Apr-27 17:33N 44°05' E 009°49'0 0.0
2016-Apr-27 16:33N 44°05' E 009°49'0 0.0
2016-Apr-27 15:32N 44°05' E 009°49'0 0.0
2016-Apr-27 14:32N 44°05' E 009°49'0 0.0
2016-Apr-27 13:31N 44°05' E 009°49'0 0.0
2016-Apr-27 12:31N 44°05' E 009°49'0 0.0
2016-Apr-27 11:33N 44°05' E 009°49'0 0.0
2016-Apr-27 10:33N 44°05' E 009°49'0 0.0
2016-Apr-27 09:33N 44°05' E 009°49'0 0.0
2016-Apr-27 08:32N 44°05' E 009°49'0 0.0
2016-Apr-27 07:32N 44°05' E 009°49'0 0.0
2016-Apr-27 06:31N 44°05' E 009°49'0 0.0
2016-Apr-27 05:31N 44°05' E 009°49'0 0.0
2016-Apr-27 04:30N 44°05' E 009°49'0 0.0
2016-Apr-27 03:33N 44°05' E 009°49'0 0.0
2016-Apr-27 02:33N 44°05' E 009°49'0 0.0
2016-Apr-27 01:32N 44°05' E 009°49'0 0.0
2016-Apr-27 00:32N 44°05' E 009°49'0 0.0
2016-Apr-26 23:31N 44°05' E 009°49'0 0.0
2016-Apr-26 22:31N 44°05' E 009°49'0 0.0
2016-Apr-26 21:33N 44°05' E 009°49'0 0.0
2016-Apr-26 20:33N 44°05' E 009°49'0 0.0
2016-Apr-26 19:33N 44°05' E 009°49'0 0.0
2016-Apr-26 18:32N 44°05' E 009°49'0 0.0
2016-Apr-26 17:32N 44°05' E 009°49'0 0.0
2016-Apr-26 16:31N 44°05' E 009°49'0 0.0
2016-Apr-26 15:31N 44°05' E 009°49'0 0.0
2016-Apr-26 14:33N 44°05' E 009°49'0 0.0
2016-Apr-26 13:33N 44°05' E 009°49'0 0.0
2016-Apr-26 12:32N 44°05' E 009°49'0 0.0
2016-Apr-26 11:32N 44°05' E 009°49'0 0.0
2016-Apr-26 10:32N 44°05' E 009°49'0 0.0
2016-Apr-26 09:31N 44°05' E 009°49'0 0.0
2016-Apr-26 08:31N 44°05' E 009°49'0 0.0
2016-Apr-26 07:33N 44°05' E 009°49'0 0.0
2016-Apr-26 06:33N 44°05' E 009°49'0 0.0
2016-Apr-26 05:32N 44°05' E 009°49'0 0.0
2016-Apr-26 04:29N 44°05' E 009°49'0 0.0
2016-Apr-26 03:32N 44°05' E 009°49'0 0.0
2016-Apr-26 02:31N 44°05' E 009°49'0 0.0
2016-Apr-26 01:31N 44°05' E 009°49'0 0.0
2016-Apr-26 00:30N 44°05' E 009°49'0 0.0
2016-Apr-25 23:33N 44°05' E 009°49'0 0.0
2016-Apr-25 22:32N 44°05' E 009°49'0 0.0
2016-Apr-25 21:32N 44°05' E 009°49'0 0.0
2016-Apr-25 20:32N 44°05' E 009°49'0 0.0
2016-Apr-25 19:31N 44°05' E 009°49'0 0.0
2016-Apr-25 18:31N 44°05' E 009°49'0 0.0
2016-Apr-25 17:33N 44°05' E 009°49'0 0.0
2016-Apr-25 16:30N 44°05' E 009°49'0 0.0
2016-Apr-25 15:29N 44°05' E 009°49'0 0.0
2016-Apr-25 14:32N 44°05' E 009°49'0 0.0
2016-Apr-25 13:31N 44°05' E 009°49'0 0.0
2016-Apr-25 12:31N 44°05' E 009°49'0 0.0
2016-Apr-25 11:31N 44°05' E 009°49'0 0.0
2016-Apr-25 10:33N 44°05' E 009°49'0 0.0
2016-Apr-25 09:33N 44°05' E 009°49'0 0.0
2016-Apr-25 08:32N 44°05' E 009°49'0 0.0
2016-Apr-25 07:32N 44°05' E 009°49'0 0.0
2016-Apr-25 06:31N 44°05' E 009°49'0 0.0
2016-Apr-25 05:28N 44°05' E 009°49'0 0.0
2016-Apr-25 04:31N 44°05' E 009°49'0 0.0
2016-Apr-25 03:33N 44°05' E 009°49'0 0.0
2016-Apr-25 02:33N 44°05' E 009°49'0 0.0
2016-Apr-25 01:32N 44°05' E 009°49'0 0.0
2016-Apr-25 00:32N 44°05' E 009°49'0 0.0
2016-Apr-24 23:31N 44°05' E 009°49'0 0.0
2016-Apr-24 22:31N 44°05' E 009°49'0 0.0
2016-Apr-24 21:31N 44°05' E 009°49'0 0.0
2016-Apr-24 20:33N 44°05' E 009°49'0 0.0
2016-Apr-24 19:33N 44°05' E 009°49'0 0.0
2016-Apr-24 18:32N 44°05' E 009°49'0 0.0
2016-Apr-24 17:32N 44°05' E 009°49'0 0.0
2016-Apr-24 16:31N 44°05' E 009°49'0 0.0
2016-Apr-24 15:31N 44°05' E 009°49'0 0.0
2016-Apr-24 14:34N 44°05' E 009°49'0 0.0
2016-Apr-24 13:30N 44°05' E 009°49'0 0.0
2016-Apr-24 12:33N 44°05' E 009°49'0 0.0
2016-Apr-24 11:32N 44°05' E 009°49'0 0.0
2016-Apr-24 10:32N 44°05' E 009°49'0 0.0
2016-Apr-24 09:31N 44°05' E 009°49'0 0.0
2016-Apr-24 08:28N 44°05' E 009°49'0 0.0
2016-Apr-24 07:33N 44°05' E 009°49'0 0.0
2016-Apr-24 06:33N 44°05' E 009°49'0 0.0
2016-Apr-24 05:33N 44°05' E 009°49'0 0.0
2016-Apr-24 04:32N 44°05' E 009°49'  

Dump ship's entire track history